createdAt,value
2022-11-28T00:01:24.852Z,5.46
2022-11-28T00:03:51.899Z,5.45
2022-11-28T00:06:18.764Z,5.48
2022-11-28T00:08:45.729Z,5.46
2022-11-28T00:11:14.810Z,5.45
2022-11-28T00:13:41.753Z,5.44
2022-11-28T00:16:12.927Z,5.42
2022-11-28T00:18:39.345Z,5.40
2022-11-28T00:21:08.379Z,5.44
2022-11-28T00:23:35.322Z,5.34
2022-11-28T00:26:06.802Z,5.35
2022-11-28T00:28:33.483Z,5.32
2022-11-28T00:30:59.919Z,5.33
2022-11-28T00:33:26.465Z,5.39
2022-11-28T00:35:59.129Z,5.44
2022-11-28T00:38:25.871Z,5.43
2022-11-28T00:41:08.248Z,5.45
2022-11-28T00:43:34.723Z,5.47
2022-11-28T00:46:01.914Z,5.48
2022-11-28T00:48:28.520Z,5.49
2022-11-28T00:50:56.028Z,5.53
2022-11-28T00:53:22.479Z,5.52
2022-11-28T00:55:48.882Z,5.51
2022-11-28T00:58:15.399Z,5.53
2022-11-28T01:00:41.913Z,5.52
2022-11-28T01:03:08.416Z,5.52
2022-11-28T01:05:40.577Z,5.54
2022-11-28T01:08:07.362Z,5.48
2022-11-28T01:10:33.851Z,5.42
2022-11-28T01:13:00.420Z,5.41
2022-11-28T01:15:27.000Z,5.48
2022-11-28T01:17:53.385Z,5.43
2022-11-28T01:20:19.831Z,5.46
2022-11-28T01:22:47.280Z,5.47
2022-11-28T01:25:13.687Z,5.42
2022-11-28T01:27:40.080Z,5.42
2022-11-28T01:30:07.267Z,5.47
2022-11-28T01:32:33.886Z,5.37
2022-11-28T01:35:00.308Z,5.32
2022-11-28T01:37:29.893Z,5.31
2022-11-28T01:39:56.356Z,5.22
2022-11-28T01:42:22.912Z,5.25
2022-11-28T01:44:49.223Z,5.20
2022-11-28T01:47:30.437Z,5.17
2022-11-28T01:49:57.075Z,5.23
2022-11-28T01:52:23.985Z,5.21
2022-11-28T01:54:57.965Z,5.21
2022-11-28T01:57:25.839Z,5.25
2022-11-28T02:00:11.611Z,5.13
2022-11-28T02:02:45.611Z,5.21
2022-11-28T02:05:12.211Z,5.14
2022-11-28T02:07:39.200Z,5.08
2022-11-28T02:10:11.723Z,5.14
2022-11-28T02:13:08.297Z,5.15
2022-11-28T02:15:56.533Z,5.02
2022-11-28T02:18:31.069Z,4.98
2022-11-28T02:21:31.829Z,4.92
2022-11-28T02:24:10.829Z,5.00
2022-11-28T02:26:58.431Z,4.93
2022-11-28T02:29:35.155Z,4.86
2022-11-28T02:32:11.668Z,4.85
2022-11-28T02:34:48.883Z,4.83
2022-11-28T02:37:27.022Z,4.79
2022-11-28T02:40:21.075Z,4.77
2022-11-28T02:43:18.684Z,4.80
2022-11-28T02:45:57.876Z,4.77
2022-11-28T02:49:09.639Z,4.68
2022-11-28T02:51:41.494Z,4.75
2022-11-28T02:54:11.636Z,4.68
2022-11-28T02:56:38.274Z,4.75
2022-11-28T02:59:23.296Z,4.70
2022-11-28T03:01:49.709Z,4.68
2022-11-28T03:04:31.720Z,4.74
2022-11-28T03:07:16.985Z,4.64
2022-11-28T03:10:14.412Z,4.64
2022-11-28T03:12:52.875Z,4.58
2022-11-28T03:15:51.149Z,4.58
2022-11-28T03:18:27.229Z,4.64
2022-11-28T03:21:05.772Z,4.59
2022-11-28T03:23:32.087Z,4.68
2022-11-28T03:26:10.128Z,4.60
2022-11-28T03:28:44.270Z,4.62
2022-11-28T03:31:15.721Z,4.57
2022-11-28T03:33:48.187Z,4.62
2022-11-28T03:36:20.092Z,4.64
2022-11-28T03:38:54.350Z,4.63
2022-11-28T03:41:43.839Z,4.61
2022-11-28T03:44:18.206Z,4.59
2022-11-28T03:46:49.519Z,4.66
2022-11-28T03:49:21.748Z,4.64
2022-11-28T03:51:54.349Z,4.64
2022-11-28T03:54:42.737Z,4.70
2022-11-28T03:57:21.192Z,4.66
2022-11-28T03:59:51.086Z,4.73
2022-11-28T04:02:39.931Z,4.69
2022-11-28T04:05:15.388Z,4.66
2022-11-28T04:07:51.037Z,4.67
2022-11-28T04:10:22.762Z,4.72
2022-11-28T04:12:59.072Z,4.79
2022-11-28T04:15:33.133Z,4.72
2022-11-28T04:18:27.069Z,4.69
2022-11-28T04:21:41.337Z,4.72
2022-11-28T04:24:13.011Z,4.66
2022-11-28T04:26:45.701Z,4.72
2022-11-28T04:29:17.757Z,4.75
2022-11-28T04:31:46.415Z,4.70
2022-11-28T04:34:17.704Z,4.73
2022-11-28T04:36:45.825Z,4.82
2022-11-28T04:39:17.565Z,4.81
2022-11-28T04:41:51.262Z,4.72
2022-11-28T04:44:36.524Z,4.72
2022-11-28T04:47:04.188Z,4.76
2022-11-28T04:49:31.361Z,4.72
2022-11-28T04:52:12.759Z,4.70
2022-11-28T04:55:02.143Z,4.67
2022-11-28T04:57:38.135Z,4.72
2022-11-28T05:00:14.046Z,4.68
2022-11-28T05:02:43.486Z,4.66
2022-11-28T05:05:16.544Z,4.68
2022-11-28T05:07:43.045Z,4.71
2022-11-28T05:10:12.148Z,4.68
2022-11-28T05:12:38.566Z,4.66
2022-11-28T05:15:05.654Z,4.62
2022-11-28T05:17:32.039Z,4.65
2022-11-28T05:19:58.577Z,4.62
2022-11-28T05:22:25.130Z,4.57
2022-11-28T05:24:52.300Z,4.62
2022-11-28T05:27:18.701Z,4.60
2022-11-28T05:29:52.036Z,4.57
2022-11-28T05:32:18.924Z,4.55
2022-11-28T05:34:45.247Z,4.50
2022-11-28T05:37:12.346Z,4.59
2022-11-28T05:39:38.828Z,4.57
2022-11-28T05:42:05.350Z,4.71
2022-11-28T05:44:31.774Z,4.68
2022-11-28T05:46:58.146Z,4.69
2022-11-28T05:49:25.419Z,4.67
2022-11-28T05:51:51.777Z,4.69
2022-11-28T05:54:18.111Z,4.58
2022-11-28T05:56:44.438Z,4.58
2022-11-28T05:59:12.255Z,4.69
2022-11-28T06:01:38.740Z,4.72
2022-11-28T06:04:05.225Z,4.71
2022-11-28T06:06:34.060Z,4.69
2022-11-28T06:09:00.734Z,4.63
2022-11-28T06:11:29.942Z,4.58
2022-11-28T06:13:56.575Z,4.71
2022-11-28T06:16:26.583Z,4.61
2022-11-28T06:18:59.008Z,4.73
2022-11-28T06:21:27.093Z,4.67
2022-11-28T06:23:53.853Z,4.61
2022-11-28T06:26:22.602Z,4.56
2022-11-28T06:28:49.252Z,4.64
2022-11-28T06:31:18.582Z,4.62
2022-11-28T06:33:45.613Z,4.63
2022-11-28T06:36:13.444Z,4.62
2022-11-28T06:38:40.069Z,4.71
2022-11-28T06:41:09.802Z,4.75
2022-11-28T06:43:36.326Z,4.70
2022-11-28T06:46:02.912Z,4.69
2022-11-28T06:48:29.351Z,4.69
2022-11-28T06:51:03.124Z,4.63
2022-11-28T06:53:31.617Z,4.56
2022-11-28T06:55:58.564Z,4.58
2022-11-28T06:58:24.943Z,4.56
2022-11-28T07:00:51.355Z,4.64
2022-11-28T07:03:17.761Z,4.54
2022-11-28T07:05:44.118Z,4.54
2022-11-28T07:08:10.515Z,4.56
2022-11-28T07:10:36.917Z,4.56
2022-11-28T07:13:05.547Z,4.61
2022-11-28T07:15:32.198Z,4.66
2022-11-28T07:17:58.562Z,4.72
2022-11-28T07:20:24.988Z,4.69
2022-11-28T07:22:51.344Z,4.65
2022-11-28T07:25:17.938Z,4.66
2022-11-28T08:49:42.848Z,4.74
2022-11-28T08:52:09.440Z,4.76
2022-11-28T08:54:36.237Z,4.82
2022-11-28T08:57:02.644Z,4.80
2022-11-28T08:59:29.297Z,4.84
2022-11-28T09:01:55.717Z,4.91
2022-11-28T09:04:23.665Z,4.91
2022-11-28T09:06:50.860Z,4.99
2022-11-28T09:09:17.546Z,5.04
2022-11-28T09:11:44.542Z,5.13
2022-11-28T09:14:11.694Z,5.14
2022-11-28T09:16:39.560Z,5.21
2022-11-28T09:19:08.998Z,5.21
2022-11-28T09:21:36.583Z,5.20
2022-11-28T09:24:03.203Z,5.32
2022-11-28T09:26:30.056Z,5.34
2022-11-28T09:28:56.672Z,5.48
2022-11-28T09:31:23.317Z,5.42
2022-11-28T09:33:49.976Z,5.47
2022-11-28T09:36:19.731Z,5.51
2022-11-28T09:38:46.759Z,5.51
2022-11-28T09:41:28.318Z,5.58
2022-11-28T09:44:03.149Z,5.52
2022-11-28T09:46:32.768Z,5.60
2022-11-28T09:49:03.106Z,5.60
2022-11-28T09:52:02.569Z,5.62
2022-11-28T09:54:40.862Z,5.60
2022-11-28T09:57:13.624Z,5.61
2022-11-28T09:59:40.830Z,5.63
2022-11-28T10:02:13.383Z,5.59
2022-11-28T10:04:59.163Z,5.57
2022-11-28T10:07:51.011Z,5.64
2022-11-28T10:10:34.386Z,5.63
2022-11-28T10:13:19.188Z,5.73
2022-11-28T10:16:12.107Z,5.72
2022-11-28T10:18:54.567Z,5.77
2022-11-28T10:21:46.506Z,5.88
2022-11-28T10:24:18.200Z,5.80
2022-11-28T10:26:53.913Z,5.83
2022-11-28T10:29:40.326Z,5.84
2022-11-28T10:32:10.724Z,5.84
2022-11-28T10:34:45.400Z,5.86
2022-11-28T10:37:25.294Z,5.81
2022-11-28T10:39:51.903Z,5.84
2022-11-28T10:42:35.672Z,5.90
2022-11-28T10:45:08.611Z,5.82
2022-11-28T10:47:43.896Z,5.86
2022-11-28T10:50:28.055Z,5.79
2022-11-28T10:53:05.407Z,5.83
2022-11-28T10:56:05.183Z,5.79
2022-11-28T10:58:54.915Z,5.89
2022-11-28T11:01:21.747Z,5.82
2022-11-28T11:03:49.261Z,5.79
2022-11-28T11:06:15.642Z,5.77
2022-11-28T11:08:42.272Z,5.82
2022-11-28T11:11:33.533Z,5.76
2022-11-28T11:14:08.617Z,5.83
2022-11-28T11:16:56.317Z,5.87
2022-11-28T11:19:43.186Z,5.85
2022-11-28T11:22:12.429Z,5.87
2022-11-28T11:24:38.929Z,5.95
2022-11-28T11:27:18.847Z,5.99
2022-11-28T11:29:48.147Z,5.97
2022-11-28T11:32:29.567Z,6.03
2022-11-28T11:34:58.685Z,6.07
2022-11-28T11:37:34.985Z,6.15
2022-11-28T11:40:03.992Z,6.24
2022-11-28T11:42:32.822Z,6.25
2022-11-28T11:45:26.089Z,6.29
2022-11-28T11:47:52.749Z,6.31
2022-11-28T11:50:22.757Z,6.43
2022-11-28T11:53:10.421Z,6.49
2022-11-28T11:56:00.410Z,6.59
2022-11-28T11:58:35.130Z,6.63
2022-11-28T12:01:02.934Z,6.61
2022-11-28T12:03:49.730Z,6.59
2022-11-28T12:06:23.387Z,6.60
2022-11-28T12:09:22.264Z,6.61
2022-11-28T12:12:00.633Z,6.62
2022-11-28T12:14:34.218Z,6.61
2022-11-28T12:17:47.833Z,6.66
2022-11-28T12:20:44.335Z,6.71
2022-11-28T12:23:33.750Z,6.73
2022-11-28T12:26:37.783Z,6.81
2022-11-28T12:29:43.309Z,6.82
2022-11-28T12:32:28.620Z,6.87
2022-11-28T12:35:36.062Z,6.94
2022-11-28T12:38:19.415Z,6.97
2022-11-28T12:41:27.623Z,7.07
2022-11-28T12:44:31.343Z,7.11
2022-11-28T12:47:17.108Z,7.10
2022-11-28T12:50:03.950Z,7.06
2022-11-28T12:52:58.431Z,7.17
2022-11-28T12:55:53.612Z,7.03
2022-11-28T12:58:43.123Z,7.06
2022-11-28T13:01:47.196Z,7.03
2022-11-28T13:04:19.618Z,7.05
2022-11-28T13:07:13.295Z,7.01
2022-11-28T13:09:58.275Z,7.01
2022-11-28T13:12:24.677Z,7.01
2022-11-28T13:14:58.612Z,6.95
2022-11-28T13:17:42.620Z,7.00
2022-11-28T13:20:42.880Z,6.95
2022-11-28T13:23:34.402Z,7.07
2022-11-28T13:26:24.642Z,7.10
2022-11-28T13:28:57.678Z,7.00
2022-11-28T13:31:48.354Z,7.01
2022-11-28T13:34:17.498Z,7.01
2022-11-28T13:40:05.179Z,6.94
2022-11-28T13:43:10.646Z,6.91
2022-11-28T13:45:47.030Z,6.90
2022-11-28T13:49:06.181Z,6.97
2022-11-28T13:51:32.109Z,6.93
2022-11-28T13:54:17.429Z,6.93
2022-11-28T13:57:07.603Z,6.87
2022-11-28T13:59:34.921Z,6.84
2022-11-28T14:02:05.442Z,6.88
2022-11-28T14:04:33.372Z,6.91
2022-11-28T14:07:04.111Z,6.87
2022-11-28T14:09:47.528Z,6.86
2022-11-28T14:12:40.481Z,6.89
2022-11-28T14:15:31.431Z,6.91
2022-11-28T14:18:39.068Z,6.91
2022-11-28T14:21:04.957Z,6.93
2022-11-28T14:23:47.786Z,6.90
2022-11-28T14:26:30.673Z,6.99
2022-11-28T14:28:57.194Z,7.01
2022-11-28T14:31:31.109Z,7.10
2022-11-28T14:34:03.413Z,7.09
2022-11-28T14:36:35.847Z,7.07
2022-11-28T14:39:04.433Z,7.08
2022-11-28T14:41:31.246Z,7.11
2022-11-28T14:44:35.216Z,7.12
2022-11-28T14:47:13.445Z,7.17
2022-11-28T14:49:39.880Z,7.17
2022-11-28T14:52:37.180Z,7.15
2022-11-28T14:54:56.181Z,7.13
2022-11-28T14:57:32.627Z,7.14
2022-11-28T15:00:24.311Z,7.16
2022-11-28T15:03:14.754Z,7.17
2022-11-28T15:05:44.132Z,7.16
2022-11-28T15:08:46.061Z,7.18
2022-11-28T15:11:26.433Z,7.18
2022-11-28T15:13:58.780Z,7.19
2022-11-28T15:16:29.735Z,7.18
2022-11-28T15:19:04.573Z,7.19
2022-11-28T15:21:33.163Z,7.14
2022-11-28T15:24:00.653Z,7.14
2022-11-28T15:26:29.519Z,7.14
2022-11-28T15:29:10.431Z,7.13
2022-11-28T15:31:37.574Z,7.12
2022-11-28T15:34:08.786Z,7.10
2022-11-28T15:36:35.765Z,7.17
2022-11-28T15:39:02.506Z,7.16
2022-11-28T15:41:29.059Z,7.13
2022-11-28T15:43:56.626Z,7.11
2022-11-28T15:46:31.340Z,7.08
2022-11-28T15:48:58.274Z,7.10
2022-11-28T15:51:34.099Z,7.07
2022-11-28T15:54:03.266Z,7.08
2022-11-28T15:56:29.783Z,7.09
2022-11-28T15:58:56.376Z,7.05
2022-11-28T16:01:25.454Z,7.07
2022-11-28T16:04:02.193Z,7.03
2022-11-28T16:06:31.850Z,7.06
2022-11-28T16:09:04.003Z,7.10
2022-11-28T16:11:32.170Z,7.14
2022-11-28T16:14:06.236Z,7.13
2022-11-28T16:16:35.589Z,7.06
2022-11-28T16:19:05.940Z,7.02
2022-11-28T16:21:35.811Z,7.09
2022-11-28T16:24:04.114Z,7.03
2022-11-28T16:26:34.727Z,6.98
2022-11-28T16:29:13.724Z,7.11
2022-11-28T16:31:42.860Z,7.04
2022-11-28T16:34:13.596Z,7.00
2022-11-28T16:36:41.376Z,6.98
2022-11-28T16:39:11.245Z,6.99
2022-11-28T16:41:40.270Z,7.04
2022-11-28T16:44:13.118Z,6.98
2022-11-28T16:46:48.290Z,6.95
2022-11-28T16:49:37.241Z,7.01
2022-11-28T16:52:22.080Z,7.00
2022-11-28T16:54:50.246Z,6.98
2022-11-28T16:57:19.031Z,6.99
2022-11-28T16:59:46.950Z,6.96
2022-11-28T17:02:15.511Z,7.01
2022-11-28T17:04:42.411Z,7.03
2022-11-28T17:07:11.576Z,7.03
2022-11-28T17:09:38.163Z,7.02
2022-11-28T17:12:15.533Z,7.11
2022-11-28T17:14:43.990Z,6.98
2022-11-28T17:17:15.792Z,6.95
2022-11-28T17:19:43.166Z,6.97
2022-11-28T17:22:24.792Z,6.98
2022-11-28T17:24:56.952Z,6.99
2022-11-28T17:27:23.456Z,6.97
2022-11-28T17:29:49.852Z,6.92
2022-11-28T17:32:16.344Z,7.00
2022-11-28T17:34:43.471Z,7.02
2022-11-28T17:37:10.363Z,7.15
2022-11-28T17:39:36.955Z,7.11
2022-11-28T17:42:04.879Z,7.04
2022-11-28T17:44:34.578Z,7.06
2022-11-28T17:47:02.906Z,7.04
2022-11-28T17:49:30.745Z,7.04
2022-11-28T17:51:57.412Z,7.06
2022-11-28T17:54:25.964Z,7.08
2022-11-28T17:56:53.932Z,7.09
2022-11-28T17:59:22.692Z,7.20
2022-11-28T18:01:49.526Z,7.07
2022-11-28T18:04:16.425Z,7.12
2022-11-28T18:06:44.335Z,7.07
2022-11-28T18:09:12.400Z,7.06
2022-11-28T18:11:39.504Z,7.05
2022-11-28T18:14:06.319Z,7.04
2022-11-28T18:16:32.827Z,7.06
2022-11-28T18:18:59.732Z,7.11
2022-11-28T18:21:26.722Z,7.04
2022-11-28T18:23:54.425Z,7.10
2022-11-28T18:26:23.843Z,7.05
2022-11-28T18:28:50.862Z,7.05
2022-11-28T18:31:23.450Z,7.06
2022-11-28T18:33:50.191Z,7.06
2022-11-28T18:36:37.584Z,7.05
2022-11-28T18:39:08.858Z,7.05
2022-11-28T18:41:35.685Z,7.03
2022-11-28T18:44:04.568Z,7.08
2022-11-28T18:46:31.764Z,7.04
2022-11-28T18:48:58.501Z,7.04
2022-11-28T18:51:35.097Z,7.06
2022-11-28T18:54:05.580Z,7.07
2022-11-28T18:56:32.679Z,7.09
2022-11-28T18:58:59.375Z,7.13
2022-11-28T19:01:30.205Z,7.11
2022-11-28T19:04:06.316Z,7.06
2022-11-28T19:06:34.863Z,7.07
2022-11-28T19:09:04.505Z,7.05
2022-11-28T19:11:32.666Z,7.01
2022-11-28T19:13:59.353Z,7.04
2022-11-28T19:16:28.681Z,7.03
2022-11-28T19:18:56.923Z,7.03
2022-11-28T19:21:26.278Z,7.03
2022-11-28T19:23:57.756Z,7.04
2022-11-28T19:26:25.946Z,7.05
2022-11-28T19:28:52.875Z,7.05
2022-11-28T19:31:27.035Z,7.06
2022-11-28T19:34:00.528Z,7.13
2022-11-28T19:36:32.849Z,7.14
2022-11-28T19:39:00.561Z,7.08
2022-11-28T19:41:28.260Z,7.08
2022-11-28T19:43:55.153Z,7.06
2022-11-28T19:46:21.525Z,7.11
2022-11-28T19:48:48.026Z,7.09
2022-11-28T19:51:15.757Z,7.08
2022-11-28T19:53:42.797Z,7.06
2022-11-28T19:56:15.952Z,7.04
2022-11-28T19:58:43.247Z,7.03
2022-11-28T20:01:21.448Z,7.00
2022-11-28T20:03:48.964Z,7.01
2022-11-28T20:06:25.085Z,7.02
2022-11-28T20:08:53.304Z,7.02
2022-11-28T20:11:22.714Z,6.97
2022-11-28T20:13:50.036Z,6.94
2022-11-28T20:16:17.718Z,6.94
2022-11-28T20:18:45.276Z,6.95
2022-11-28T20:21:17.547Z,6.93
2022-11-28T20:23:47.281Z,6.89
2022-11-28T20:26:15.606Z,6.90
2022-11-28T20:28:42.953Z,6.92
2022-11-28T20:31:19.211Z,6.89
2022-11-28T20:33:45.698Z,6.89
2022-11-28T20:36:14.188Z,6.86
2022-11-28T20:38:40.831Z,6.83
2022-11-28T20:41:10.548Z,6.79
2022-11-28T20:43:39.353Z,6.76
2022-11-28T20:46:15.296Z,6.74
2022-11-28T20:48:42.291Z,6.73
2022-11-28T20:51:20.889Z,6.73
2022-11-28T20:53:48.504Z,6.74
2022-11-28T20:56:17.628Z,6.71
2022-11-28T20:58:45.297Z,6.70
2022-11-28T21:01:20.656Z,6.69
2022-11-28T21:03:47.799Z,6.70
2022-11-28T21:06:14.684Z,6.69
2022-11-28T21:08:42.033Z,6.69
2022-11-28T21:11:25.580Z,6.71
2022-11-28T21:13:57.992Z,6.72
2022-11-28T21:16:31.084Z,6.73
2022-11-28T21:19:01.478Z,6.75
2022-11-28T21:21:32.691Z,6.74
2022-11-28T21:24:02.163Z,6.75
2022-11-28T21:26:30.670Z,6.72
2022-11-28T21:29:02.159Z,6.72
2022-11-28T21:31:32.693Z,6.70
2022-11-28T21:33:59.683Z,6.70
2022-11-28T21:36:27.803Z,6.72
2022-11-28T21:38:57.146Z,6.72
2022-11-28T21:41:27.843Z,6.71
2022-11-28T21:43:54.891Z,6.71
2022-11-28T21:46:21.483Z,6.73
2022-11-28T21:48:47.966Z,6.74
2022-11-28T21:51:19.781Z,6.75
2022-11-28T21:53:46.401Z,6.76
2022-11-28T21:56:13.139Z,6.76
2022-11-28T21:58:39.806Z,6.80
2022-11-28T22:01:09.116Z,6.80
2022-11-28T22:03:36.104Z,6.81
2022-11-28T22:06:12.525Z,6.80
2022-11-28T22:08:38.925Z,6.82
2022-11-28T22:11:08.508Z,6.80
2022-11-28T22:13:35.670Z,6.76
2022-11-28T22:16:07.193Z,6.75
2022-11-28T22:18:34.561Z,6.74
2022-11-28T22:21:06.481Z,6.73
2022-11-28T22:23:37.715Z,6.72
2022-11-28T22:26:06.723Z,6.72
2022-11-28T22:28:34.609Z,6.73
2022-11-28T22:31:16.672Z,6.74
2022-11-28T22:33:44.561Z,6.74
2022-11-28T22:36:16.727Z,6.74
2022-11-28T22:38:44.375Z,6.75
2022-11-28T22:41:15.324Z,6.73
2022-11-28T22:43:41.818Z,6.75
2022-11-28T22:46:09.299Z,6.77
2022-11-28T22:48:36.972Z,6.73
2022-11-28T22:51:12.512Z,6.74
2022-11-28T22:53:39.066Z,6.72
2022-11-28T22:56:07.650Z,6.72
2022-11-28T22:58:39.421Z,6.71
2022-11-28T23:01:11.589Z,6.73
2022-11-28T23:03:38.417Z,6.72
2022-11-28T23:06:13.725Z,6.73
2022-11-28T23:08:40.796Z,6.74
2022-11-28T23:11:19.826Z,6.74
2022-11-28T23:13:49.592Z,6.74
2022-11-28T23:16:22.097Z,6.75
2022-11-28T23:18:51.214Z,6.75
2022-11-28T23:21:19.363Z,6.75
2022-11-28T23:23:46.278Z,6.74
2022-11-28T23:26:18.312Z,6.73
2022-11-28T23:28:45.205Z,6.72
2022-11-28T23:31:18.444Z,6.71
2022-11-28T23:33:45.851Z,6.73
2022-11-28T23:36:27.316Z,6.70
2022-11-28T23:38:56.204Z,6.71
2022-11-28T23:41:23.035Z,6.69
2022-11-28T23:43:50.090Z,6.71
2022-11-28T23:46:17.549Z,6.72
2022-11-28T23:48:45.098Z,6.74
2022-11-28T23:51:13.281Z,6.74
2022-11-28T23:53:40.883Z,6.75
2022-11-28T23:56:13.019Z,6.75
2022-11-28T23:58:40.321Z,6.75
